Bei Facebook empfehlenBei Twitter postenGoogle plusPinterest

Das Wetter im Erzgebirge am 03.10.2015

Wetter und Klima am 03.10.2015 Holzhau im Erzgebirge (630m ü.NN)
Letzte gemessene Temperatur und Uhrzeit der Messung23:45:00 Uhr8.10 °C
Temperatur (Maximum / Höchstwert) und Uhrzeit der Messung14:00:00 Uhr17.40 °C
Temperatur (Minimum / Tiefstwert) und Uhrzeit der Messung07:15:006.80 °C
Errechneter Absolutwert der Temperaturschwankungen zwischen Tmin und Tmax des Tages10.60 K
Errechnete Tagesmitteltemperatur11.26979 °C
Gesamt - Niederschlag des Tages (in flüssiger Form)0.00 Liter / m²
Luftdruck (Maximum / Höchstwert) und Zeitpunkt der Messung00:00:00 Uhr1017.10 hPa
Luftdruck (Minimum / Tiefstwert) und Zeitpunkt der Messung23:45:00 Uhr1012.10 hPa
Errechneter Absolutwert der Luftdruckschwankungen des Tages5.00 hPa
Höchste gemessene Windgeschwindigkeit und Uhrzeit der Messung14:45:00 Uhr11.88 km/h
Errechnete Windhäufigkeit in Relation zu den Messwerten des Tages25.00000 %
Niedrigste Windkühle (Windchill) und Zeitpunkt der Messung06:45:00 Uhr5.20 °C
Taupunkt (Maximum / Höchstwert) und Uhrzeit der Messung11:15:00 Uhr10.90 °C
Taupunkt (Minimum / Tiefstwert) und Uhrzeit der Messung06:45:004.40 °C
Anzahl der automatisch eingelesenen Messwerte 96

Detaillierte Wetter- und Klima- Messwerte für den 03.10.2015 in Holzhau im Erzgebirge (630m ü.NN)
ZeitTemperaturLuftdruckRel. LuftfeuchteWindWindrichtungWindchillTaupunktNiederschlag l/m²
23:45:008.10 °C1012.10 hPa87.00 %6.10 °C 
23:30:008.30 °C1012.30 hPa87.00 %6.30 °C 
23:15:008.50 °C1012.50 hPa86.00 %6.30 °C 
23:00:008.70 °C1012.60 hPa86.00 %6.50 °C 
22:45:008.90 °C1012.60 hPa86.00 %6.70 °C 
22:30:008.90 °C1012.50 hPa85.00 %6.50 °C 
22:15:008.90 °C1013.00 hPa84.00 %6.30 °C 
22:00:009.20 °C1012.60 hPa84.00 %6.60 °C 
21:45:009.80 °C1012.70 hPa83.00 %7.10 °C 
21:30:009.90 °C1012.60 hPa83.00 %7.20 °C 
21:15:0010.10 °C1012.40 hPa83.00 %7.30 °C 
21:00:0010.10 °C1012.50 hPa82.00 %7.20 °C 
20:45:0010.40 °C1012.50 hPa80.00 %7.10 °C 
20:30:0010.70 °C1012.80 hPa79.00 %7.20 °C 
20:15:0011.10 °C1013.00 hPa79.00 %7.60 °C 
20:00:0011.30 °C1013.10 hPa78.00 %2.88 km/hONO11.30 °C7.60 °C 
19:45:0011.50 °C1013.00 hPa77.00 %7.60 °C 
19:30:0011.60 °C1012.90 hPa76.00 %7.50 °C 
19:15:0011.90 °C1012.50 hPa76.00 %7.80 °C 
19:00:0012.20 °C1012.20 hPa75.00 %7.90 °C 
18:45:0012.60 °C1012.20 hPa73.00 %7.90 °C 
18:30:0013.00 °C1012.20 hPa72.00 %8.10 °C 
18:15:0013.50 °C1012.30 hPa71.00 %8.40 °C 
18:00:0013.80 °C1012.20 hPa71.00 %8.60 °C 
17:45:0013.90 °C1012.30 hPa70.00 %8.50 °C 
17:30:0014.10 °C1012.30 hPa69.00 %8.50 °C 
17:15:0014.40 °C1012.30 hPa68.00 %8.60 °C 
17:00:0014.90 °C1012.40 hPa67.00 %8.80 °C 
16:45:0015.30 °C1012.60 hPa67.00 %9.20 °C 
16:30:0015.10 °C1012.70 hPa66.00 %8.80 °C 
16:15:0015.40 °C1012.90 hPa65.00 %8.90 °C 
16:00:0015.80 °C1013.10 hPa65.00 %9.20 °C 
15:45:0016.20 °C1013.00 hPa65.00 %5.76 km/hSO16.60 °C9.60 °C 
15:30:0015.70 °C1012.90 hPa66.00 %9.40 °C 
15:15:0015.90 °C1013.00 hPa64.00 %4.68 km/hS15.90 °C9.10 °C 
15:00:0016.50 °C1013.00 hPa62.00 %4.68 km/hO16.50 °C9.20 °C 
14:45:0017.20 °C1012.90 hPa62.00 %11.88 km/hS17.00 °C9.90 °C 
14:30:0017.30 °C1012.80 hPa63.00 %5.76 km/hONO17.90 °C10.20 °C 
14:15:0017.20 °C1013.10 hPa62.00 %2.16 km/hONO17.20 °C9.90 °C 
14:00:0017.40 °C1013.20 hPa63.00 %10.30 °C 
13:45:0016.90 °C1013.10 hPa63.00 %9.80 °C 
13:30:0016.60 °C1013.30 hPa65.00 %10.00 °C 
13:15:0016.30 °C1013.40 hPa64.00 %9.50 °C 
13:00:0016.40 °C1013.40 hPa65.00 %6.84 km/hSW16.70 °C9.80 °C 
12:45:0016.60 °C1013.50 hPa66.00 %9.36 km/hSO16.60 °C10.20 °C 
12:30:0016.40 °C1013.50 hPa65.00 %2.88 km/hSSO16.40 °C9.80 °C 
12:15:0016.40 °C1013.70 hPa67.00 %10.30 °C 
12:00:0016.10 °C1013.70 hPa67.00 %10.00 °C 
11:45:0015.90 °C1013.50 hPa68.00 %10.00 °C 
11:30:0016.10 °C1013.60 hPa69.00 %10.40 °C 
11:15:0015.90 °C1013.70 hPa72.00 %2.16 km/hSSW15.90 °C10.90 °C 
11:00:0015.10 °C1013.60 hPa74.00 %7.20 km/hNO15.10 °C10.50 °C 
10:45:0014.40 °C1013.70 hPa76.00 %10.20 °C 
10:30:0013.40 °C1013.80 hPa77.00 %9.50 °C 
10:15:0012.80 °C1014.10 hPa79.00 %9.30 °C 
10:00:0012.20 °C1014.20 hPa80.00 %8.90 °C 
09:45:0011.50 °C1014.10 hPa82.00 %8.50 °C 
09:30:0010.90 °C1014.10 hPa84.00 %6.84 km/hNNO10.30 °C8.30 °C 
09:15:0010.30 °C1014.00 hPa85.00 %7.90 °C 
09:00:009.40 °C1014.10 hPa87.00 %7.30 °C 
08:45:008.30 °C1014.00 hPa87.00 %6.30 °C 
08:30:007.50 °C1014.00 hPa86.00 %5.30 °C 
08:15:007.30 °C1014.00 hPa86.00 %5.10 °C 
08:00:007.10 °C1014.00 hPa86.00 %4.90 °C 
07:45:007.00 °C1013.90 hPa85.00 %2.88 km/hNO7.00 °C4.70 °C 
07:30:006.90 °C1013.90 hPa85.00 %6.84 km/hN5.70 °C4.60 °C 
07:15:006.80 °C1014.00 hPa85.00 %4.50 °C 
07:00:006.80 °C1013.90 hPa85.00 %4.50 °C 
06:45:006.90 °C1014.10 hPa84.00 %8.64 km/hNNO5.20 °C4.40 °C 
06:30:007.00 °C1014.30 hPa84.00 %4.50 °C 
06:15:007.30 °C1014.30 hPa84.00 %4.80 °C 
06:00:007.40 °C1014.30 hPa83.00 %4.70 °C 
05:45:007.50 °C1014.30 hPa83.00 %4.80 °C 
05:30:007.60 °C1014.50 hPa83.00 %4.32 km/hOSO7.60 °C4.90 °C 
05:15:007.40 °C1014.80 hPa83.00 %4.70 °C 
05:00:007.40 °C1015.10 hPa82.00 %4.50 °C 
04:45:007.60 °C1015.20 hPa83.00 %4.90 °C 
04:30:007.40 °C1015.30 hPa82.00 %4.68 km/hSSW7.40 °C4.50 °C 
04:15:007.40 °C1015.30 hPa81.00 %4.40 °C 
04:00:007.60 °C1015.30 hPa81.00 %4.60 °C 
03:45:007.90 °C1015.30 hPa81.00 %4.80 °C 
03:30:008.20 °C1015.80 hPa80.00 %10.08 km/hNO6.50 °C5.00 °C 
03:15:008.30 °C1015.90 hPa80.00 %5.10 °C 
03:00:008.30 °C1016.20 hPa80.00 %6.12 km/hO7.50 °C5.10 °C 
02:45:008.20 °C1016.20 hPa80.00 %5.00 °C 
02:30:008.30 °C1016.30 hPa79.00 %4.90 °C 
02:15:008.50 °C1016.30 hPa79.00 %5.10 °C 
02:00:008.80 °C1016.20 hPa78.00 %5.20 °C 
01:45:008.90 °C1016.40 hPa77.00 %5.10 °C 
01:30:009.00 °C1016.60 hPa77.00 %5.20 °C 
01:15:009.00 °C1016.60 hPa77.00 %3.96 km/hONO9.00 °C5.20 °C 
01:00:009.20 °C1016.70 hPa76.00 %5.20 °C 
00:45:009.30 °C1016.70 hPa75.00 %7.92 km/hOSO8.20 °C5.10 °C 
00:30:009.50 °C1016.80 hPa75.00 %1.80 km/hSO9.50 °C5.30 °C 
00:15:009.60 °C1016.90 hPa74.00 %5.04 km/hNO9.30 °C5.20 °C 
00:00:009.80 °C1017.10 hPa74.00 %5.40 °C 

Permanenter Link zu dieser Seite: Wetter im Erzgebirge am 03.10.2015
Performance-Info: Die Erstellung der Seite / Statistik(en) / Tabelle(n) erforderte 5 Datenbankserver-Abfrage(n) und dauerte 125 Millisekunden. (Dieser Messwert ist von der Gesamt-Auslastung des Servers abhängig.)
Erzgebirge - Wetter | Erzgebirge - Wetter (Mobilgeräte) | Komplette Klimadatenbank